createdAt,value
2022-10-03T00:01:38.515Z,99380.13
2022-10-03T00:04:28.571Z,99392.31
2022-10-03T00:07:15.146Z,99396.88
2022-10-03T00:09:53.356Z,99408.03
2022-10-03T00:13:01.267Z,99408.25
2022-10-03T00:16:06.896Z,99423.75
2022-10-03T00:18:57.235Z,99423.44
2022-10-03T00:21:40.852Z,99423.94
2022-10-03T00:24:46.545Z,99412.25
2022-10-03T00:27:39.127Z,99393.94
2022-10-03T00:30:14.319Z,99387.59
2022-10-03T00:32:53.318Z,99378.94
2022-10-03T00:35:58.869Z,99373.34
2022-10-03T00:38:33.053Z,99368.50
2022-10-03T00:41:57.595Z,99364.94
2022-10-03T00:44:49.740Z,99364.19
2022-10-03T00:47:54.971Z,99376.63
2022-10-03T00:50:50.357Z,99377.41
2022-10-03T00:53:27.703Z,99378.16
2022-10-03T00:56:12.800Z,99364.94
2022-10-03T00:58:55.336Z,99383.00
2022-10-03T01:01:29.513Z,99387.81
2022-10-03T01:04:30.182Z,99385.78
2022-10-03T01:07:04.776Z,99383.00
2022-10-03T01:09:51.161Z,99392.13
2022-10-03T01:12:19.995Z,99397.22
2022-10-03T01:15:02.729Z,99396.47
2022-10-03T01:17:49.471Z,99388.59
2022-10-03T01:20:36.589Z,99391.38
2022-10-03T01:23:23.615Z,99394.16
2022-10-03T01:26:27.213Z,99394.94
2022-10-03T01:29:21.394Z,99402.06
2022-10-03T01:32:03.170Z,99405.63
2022-10-03T01:34:47.357Z,99405.13
2022-10-03T01:37:23.552Z,99406.66
2022-10-03T01:40:30.619Z,99403.34
2022-10-03T01:43:22.197Z,99398.78
2022-10-03T01:46:13.500Z,99400.59
2022-10-03T01:49:00.758Z,99399.63
2022-10-03T01:51:35.789Z,99407.75
2022-10-03T01:54:22.873Z,99413.13
2022-10-03T01:57:15.944Z,99414.16
2022-10-03T02:00:11.794Z,99418.25
2022-10-03T02:02:52.812Z,99427.66
2022-10-03T02:05:39.199Z,99427.41
2022-10-03T02:08:15.847Z,99426.75
2022-10-03T02:11:11.103Z,99421.44
2022-10-03T02:13:50.204Z,99431.09
2022-10-03T02:16:33.740Z,99433.16
2022-10-03T02:19:30.709Z,99434.72
2022-10-03T02:22:01.633Z,99432.22
2022-10-03T02:24:45.228Z,99442.94
2022-10-03T02:27:54.893Z,99435.31
2022-10-03T02:30:41.238Z,99435.84
2022-10-03T02:33:25.064Z,99438.91
2022-10-03T02:36:11.758Z,99439.16
2022-10-03T02:38:48.898Z,99443.28
2022-10-03T02:41:52.756Z,99437.69
2022-10-03T02:44:53.052Z,99440.50
2022-10-03T02:47:47.073Z,99441.03
2022-10-03T02:50:30.455Z,99450.72
2022-10-03T02:53:23.172Z,99450.47
2022-10-03T02:56:09.596Z,99448.97
2022-10-03T02:58:52.763Z,99447.72
2022-10-03T03:02:02.422Z,99442.63
2022-10-03T03:04:55.867Z,99445.97
2022-10-03T03:07:39.185Z,99432.22
2022-10-03T03:10:38.732Z,99434.75
2022-10-03T03:13:16.346Z,99430.19
2022-10-03T03:15:48.166Z,99439.88
2022-10-03T03:18:25.855Z,99435.03
2022-10-03T03:21:04.674Z,99437.56
2022-10-03T03:23:53.884Z,99435.28
2022-10-03T03:26:40.319Z,99427.38
2022-10-03T03:29:22.315Z,99435.53
2022-10-03T03:32:04.194Z,99429.44
2022-10-03T03:34:54.646Z,99427.63
2022-10-03T03:38:03.869Z,99419.44
2022-10-03T03:40:57.559Z,99416.88
2022-10-03T03:43:38.225Z,99412.78
2022-10-03T03:46:12.062Z,99413.03
2022-10-03T03:49:14.804Z,99414.28
2022-10-03T03:52:04.403Z,99409.69
2022-10-03T03:54:46.054Z,99414.00
2022-10-03T03:57:38.067Z,99415.28
2022-10-03T04:00:22.103Z,99403.50
2022-10-03T04:03:37.922Z,99405.75
2022-10-03T04:06:37.263Z,99400.59
2022-10-03T04:09:26.330Z,99392.88
2022-10-03T04:12:11.210Z,99398.41
2022-10-03T04:15:20.831Z,99384.09
2022-10-03T04:18:33.423Z,99391.16
2022-10-03T04:21:10.383Z,99377.56
2022-10-03T04:23:59.396Z,99368.03
2022-10-03T04:26:38.815Z,99372.53
2022-10-03T04:29:25.072Z,99367.84
2022-10-03T04:32:35.786Z,99364.19
2022-10-03T04:35:34.722Z,99364.19
2022-10-03T04:38:27.140Z,99364.00
2022-10-03T04:41:13.497Z,99367.63
2022-10-03T04:43:48.019Z,99357.00
2022-10-03T04:46:28.495Z,99350.84
2022-10-03T04:49:18.478Z,99351.31
2022-10-03T04:52:03.694Z,99348.94
2022-10-03T04:54:37.982Z,99353.66
2022-10-03T04:57:36.757Z,99348.63
2022-10-03T05:00:10.154Z,99341.16
2022-10-03T05:02:50.433Z,99336.97
2022-10-03T05:05:28.289Z,99332.00
2022-10-03T05:08:20.436Z,99317.34
2022-10-03T05:11:07.600Z,99317.13
2022-10-03T05:13:44.739Z,99313.53
2022-10-03T05:16:15.786Z,99303.03
2022-10-03T05:19:07.272Z,99307.06
2022-10-03T05:21:48.630Z,99309.44
2022-10-03T05:24:35.645Z,99309.47
2022-10-03T05:27:42.101Z,99291.81
2022-10-03T05:30:20.928Z,99290.69
2022-10-03T05:33:06.268Z,99280.81
2022-10-03T05:35:47.230Z,99291.63
2022-10-03T05:38:18.624Z,99287.13
2022-10-03T05:41:10.914Z,99282.88
2022-10-03T05:43:55.393Z,99286.75
2022-10-03T05:46:34.299Z,99281.44
2022-10-03T05:49:33.408Z,99262.41
2022-10-03T05:52:20.403Z,99268.19
2022-10-03T05:55:35.930Z,99270.53
2022-10-03T05:58:23.176Z,99251.13
2022-10-03T06:00:58.168Z,99243.91
2022-10-03T06:04:03.851Z,99234.59
2022-10-03T06:07:16.302Z,99228.09
2022-10-03T06:10:05.356Z,99229.09
2022-10-03T06:12:48.191Z,99222.69
2022-10-03T06:15:28.355Z,99209.78
2022-10-03T06:18:17.591Z,99208.25
2022-10-03T06:20:57.732Z,99197.31
2022-10-03T06:23:32.653Z,99190.66
2022-10-03T06:26:29.971Z,99187.75
2022-10-03T06:29:24.065Z,99192.97
2022-10-03T06:32:19.854Z,99173.31
2022-10-03T06:35:10.353Z,99169.09
2022-10-03T06:38:00.043Z,99161.31
2022-10-03T06:41:02.515Z,99161.72
2022-10-03T06:44:01.282Z,99152.41
2022-10-03T06:46:41.654Z,99142.84
2022-10-03T06:49:31.093Z,99141.78
2022-10-03T06:52:18.038Z,99127.81
2022-10-03T06:55:16.688Z,99126.38
2022-10-03T06:58:00.451Z,99115.28
2022-10-03T07:00:57.793Z,99109.69
2022-10-03T07:03:57.012Z,99112.91
2022-10-03T07:06:38.196Z,99096.41
2022-10-03T07:09:40.679Z,99091.75
2022-10-03T07:12:18.853Z,99082.94
2022-10-03T07:15:15.914Z,99073.19
2022-10-03T07:17:52.630Z,99073.19
2022-10-03T07:20:37.532Z,99065.91
2022-10-03T07:23:08.921Z,99064.47
2022-10-03T07:26:14.398Z,99061.31
2022-10-03T07:29:00.769Z,99040.44
2022-10-03T07:31:42.582Z,99037.63
2022-10-03T07:34:38.651Z,99040.78
2022-10-03T07:37:37.007Z,99038.53
2022-10-03T07:40:32.019Z,99044.91
2022-10-03T07:43:32.175Z,99034.75
2022-10-03T07:46:28.029Z,99036.19
2022-10-03T07:49:18.375Z,99046.50
2022-10-03T07:52:01.075Z,99040.41
2022-10-03T07:54:56.641Z,99035.53
2022-10-03T07:57:51.763Z,99043.03
2022-10-03T08:00:24.008Z,99038.16
2022-10-03T08:03:18.770Z,99038.91
2022-10-03T08:06:04.311Z,99041.41
2022-10-03T08:09:07.879Z,99025.72
2022-10-03T08:12:09.687Z,99024.28
2022-10-03T08:15:11.506Z,99025.66
2022-10-03T08:17:39.837Z,99032.81
2022-10-03T08:20:18.066Z,99037.50
2022-10-03T08:23:13.328Z,99047.25
2022-10-03T08:25:59.871Z,99044.72
2022-10-03T08:28:48.270Z,99042.38
2022-10-03T08:31:26.523Z,99044.34
2022-10-03T08:34:09.790Z,99033.75
2022-10-03T08:36:46.361Z,99018.34
2022-10-03T08:39:29.527Z,99009.91
2022-10-03T08:42:19.227Z,99015.53
2022-10-03T08:45:10.392Z,99020.53
2022-10-03T08:48:12.877Z,99030.84
2022-10-03T08:50:44.601Z,99029.88
2022-10-03T08:53:34.574Z,99031.50
2022-10-03T08:56:35.920Z,99031.09
2022-10-03T08:59:19.144Z,99040.75
2022-10-03T09:02:05.728Z,99051.38
2022-10-03T09:05:11.038Z,99046.19
2022-10-03T09:07:45.075Z,99049.44
2022-10-03T09:10:17.401Z,99066.75
2022-10-03T09:13:06.604Z,99069.47
2022-10-03T09:16:18.511Z,99076.59
2022-10-03T09:18:56.577Z,99074.94
2022-10-03T09:21:33.737Z,99076.34
2022-10-03T09:24:26.705Z,99071.91
2022-10-03T09:27:00.787Z,99081.50
2022-10-03T09:30:01.045Z,99086.97
2022-10-03T09:33:06.607Z,99086.84
2022-10-03T09:35:59.880Z,99080.88
2022-10-03T09:38:40.292Z,99081.47
2022-10-03T09:41:20.548Z,99085.69
2022-10-03T09:44:26.221Z,99089.88
2022-10-03T09:47:34.027Z,99093.53
2022-10-03T09:50:14.924Z,99086.69
2022-10-03T09:52:48.776Z,99082.88
2022-10-03T09:55:50.624Z,99076.81
2022-10-03T09:58:43.097Z,99070.19
2022-10-03T10:01:11.918Z,99070.75
2022-10-03T10:03:48.869Z,99066.38
2022-10-03T10:06:38.679Z,99061.06
2022-10-03T10:09:36.111Z,99063.66
2022-10-03T10:12:04.584Z,99067.75
2022-10-03T10:15:07.927Z,99077.47
2022-10-03T10:17:57.387Z,99075.75
2022-10-03T10:21:00.510Z,99076.00
2022-10-03T10:23:39.099Z,99072.22
2022-10-03T10:26:35.048Z,99086.81
2022-10-03T10:29:19.084Z,99077.91
2022-10-03T10:32:24.291Z,99084.63
2022-10-03T10:35:23.425Z,99097.69
2022-10-03T10:38:36.527Z,99105.66
2022-10-03T10:41:22.986Z,99112.34
2022-10-03T10:43:54.593Z,99114.91
2022-10-03T10:47:07.091Z,99132.84
2022-10-03T10:49:47.806Z,99139.50
2022-10-03T10:52:48.890Z,99142.59
2022-10-03T10:55:35.786Z,99150.03
2022-10-03T10:58:48.968Z,99163.31
2022-10-03T11:01:51.154Z,99155.94
2022-10-03T11:04:22.529Z,99161.88
2022-10-03T11:07:24.535Z,99169.31
2022-10-03T11:10:02.235Z,99169.84
2022-10-03T11:12:59.754Z,99168.06
2022-10-03T11:15:59.762Z,99165.00
2022-10-03T11:18:52.272Z,99171.16
2022-10-03T11:21:53.381Z,99165.28
2022-10-03T11:25:10.395Z,99158.66
2022-10-03T11:28:19.054Z,99163.53
2022-10-03T11:31:14.091Z,99166.84
2022-10-03T11:34:19.634Z,99173.00
2022-10-03T11:37:10.191Z,99165.09
2022-10-03T11:40:00.222Z,99177.09
2022-10-03T11:42:52.076Z,99182.47
2022-10-03T11:45:55.437Z,99189.38
2022-10-03T11:48:44.985Z,99195.53
2022-10-03T11:51:28.912Z,99198.84
2022-10-03T11:54:31.119Z,99198.09
2022-10-03T11:57:23.159Z,99205.75
2022-10-03T12:00:18.878Z,99202.19
2022-10-03T12:03:11.856Z,99205.00
2022-10-03T12:06:41.337Z,99216.00
2022-10-03T12:09:35.784Z,99222.91
2022-10-03T12:12:43.777Z,99243.59
2022-10-03T12:15:39.350Z,99241.31
2022-10-03T12:18:17.757Z,99239.03
2022-10-03T12:21:11.002Z,99237.50
2022-10-03T12:24:07.475Z,99233.69
2022-10-03T12:27:01.959Z,99228.81
2022-10-03T12:29:34.919Z,99232.91
2022-10-03T12:32:18.156Z,99242.09
2022-10-03T12:35:24.632Z,99253.34
2022-10-03T12:38:21.581Z,99261.50
2022-10-03T12:41:14.352Z,99274.03
2022-10-03T12:43:45.709Z,99282.97
2022-10-03T12:46:32.624Z,99298.28
2022-10-03T12:49:39.784Z,99310.28
2022-10-03T12:52:29.510Z,99317.19
2022-10-03T12:55:32.691Z,99321.78
2022-10-03T12:58:06.864Z,99327.16
2022-10-03T13:01:19.818Z,99332.03
2022-10-03T13:04:06.721Z,99350.91
2022-10-03T13:07:03.212Z,99367.75
2022-10-03T13:10:03.456Z,99365.47
2022-10-03T13:12:45.443Z,99372.13
2022-10-03T13:15:50.999Z,99372.63
2022-10-03T13:18:44.402Z,99380.31
2022-10-03T13:21:45.422Z,99386.69
2022-10-03T13:24:36.189Z,99384.63
2022-10-03T13:27:17.607Z,99385.16
2022-10-03T13:29:56.617Z,99388.72
2022-10-03T13:33:10.246Z,99401.22
2022-10-03T13:36:03.619Z,99396.91
2022-10-03T13:39:13.760Z,99399.47
2022-10-03T13:42:20.244Z,99401.50
2022-10-03T13:45:28.301Z,99407.88
2022-10-03T13:48:25.060Z,99412.50
2022-10-03T13:51:23.057Z,99431.09
2022-10-03T13:54:07.919Z,99435.94
2022-10-03T13:56:50.778Z,99445.13
2022-10-03T13:59:33.225Z,99449.97
2022-10-03T14:02:04.792Z,99455.59
2022-10-03T14:04:52.143Z,99451.50
2022-10-03T14:08:03.784Z,99457.41
2022-10-03T14:10:50.430Z,99454.06
2022-10-03T14:13:33.380Z,99461.47
2022-10-03T14:16:23.169Z,99462.22
2022-10-03T14:19:18.807Z,99455.31
2022-10-03T14:22:28.553Z,99444.09
2022-10-03T14:25:18.194Z,99445.63
2022-10-03T14:28:00.723Z,99451.75
2022-10-03T14:31:04.974Z,99457.88
2022-10-03T14:33:54.349Z,99457.63
2022-10-03T14:36:34.853Z,99456.88
2022-10-03T14:39:12.077Z,99459.69
2022-10-03T14:42:16.902Z,99460.97
2022-10-03T14:44:51.283Z,99467.34
2022-10-03T14:47:20.726Z,99454.84
2022-10-03T14:49:59.190Z,99454.84
2022-10-03T14:52:43.101Z,99453.31
2022-10-03T14:55:30.463Z,99462.50
2022-10-03T14:58:18.201Z,99458.91
2022-10-03T15:01:03.348Z,99458.91
2022-10-03T15:03:40.287Z,99460.44
2022-10-03T15:06:23.771Z,99457.13
2022-10-03T15:09:00.980Z,99455.84
2022-10-03T15:11:46.476Z,99464.50
2022-10-03T15:14:18.618Z,99454.03
2022-10-03T15:17:23.653Z,99461.19
2022-10-03T15:20:00.524Z,99461.19
2022-10-03T15:22:42.269Z,99464.00
2022-10-03T15:25:19.520Z,99457.09
2022-10-03T15:27:56.693Z,99450.72
2022-10-03T15:30:59.066Z,99452.25
2022-10-03T15:33:40.084Z,99457.09
2022-10-03T15:36:15.667Z,99463.47
2022-10-03T15:38:50.466Z,99462.97
2022-10-03T15:41:43.451Z,99464.25
2022-10-03T15:44:40.081Z,99467.03
2022-10-03T15:47:20.163Z,99486.19
2022-10-03T15:49:56.875Z,99488.22
2022-10-03T15:52:49.206Z,99483.38
2022-10-03T15:55:33.312Z,99484.66
2022-10-03T15:58:17.987Z,99491.03
2022-10-03T16:01:07.739Z,99496.66
2022-10-03T16:03:50.556Z,99498.94
2022-10-03T16:06:42.041Z,99492.03
2022-10-03T16:09:34.860Z,99488.47
2022-10-03T16:12:14.119Z,99485.66
2022-10-03T16:14:42.533Z,99478.53
2022-10-03T16:17:29.967Z,99490.28
2022-10-03T16:20:28.285Z,99490.28
2022-10-03T16:22:59.971Z,99484.16
2022-10-03T16:25:40.967Z,99476.25
2022-10-03T16:28:15.523Z,99479.56
2022-10-03T16:30:58.180Z,99485.44
2022-10-03T16:33:36.082Z,99484.16
2022-10-03T16:36:09.143Z,99480.34
2022-10-03T16:38:45.443Z,99473.97
2022-10-03T16:41:31.139Z,99472.97
2022-10-03T16:44:04.212Z,99481.88
2022-10-03T16:46:41.652Z,99478.59
2022-10-03T16:49:45.457Z,99493.13
2022-10-03T16:52:16.918Z,99478.09
2022-10-03T16:54:48.241Z,99480.88
2022-10-03T16:57:22.861Z,99470.44
2022-10-03T16:59:55.574Z,99463.56
2022-10-03T17:02:31.670Z,99466.63
2022-10-03T17:05:10.282Z,99463.59
2022-10-03T17:07:53.740Z,99466.91
2022-10-03T17:10:39.464Z,99485.22
2022-10-03T17:13:22.152Z,99497.22
2022-10-03T17:16:13.766Z,99496.72
2022-10-03T17:18:45.594Z,99494.16
2022-10-03T17:21:33.819Z,99495.97
2022-10-03T17:24:18.886Z,99502.84
2022-10-03T17:26:53.449Z,99502.06
2022-10-03T17:29:26.610Z,99506.66
2022-10-03T17:32:21.529Z,99507.44
2022-10-03T17:35:13.031Z,99508.69
2022-10-03T17:38:24.916Z,99510.47
2022-10-03T17:41:14.538Z,99508.16
2022-10-03T17:43:59.519Z,99493.84
2022-10-03T17:46:41.456Z,99490.81
2022-10-03T17:49:32.594Z,99485.97
2022-10-03T17:52:01.165Z,99485.19
2022-10-03T17:54:35.014Z,99484.94
2022-10-03T17:57:28.554Z,99492.34
2022-10-03T18:00:36.368Z,99497.94
2022-10-03T18:03:41.335Z,99502.78
2022-10-03T18:06:21.875Z,99499.97
2022-10-03T18:08:53.375Z,99496.41
2022-10-03T18:11:29.580Z,99497.19
2022-10-03T18:14:14.421Z,99508.38
2022-10-03T18:17:09.252Z,99508.38
2022-10-03T18:20:04.991Z,99506.34
2022-10-03T18:22:42.590Z,99510.69
2022-10-03T18:25:45.591Z,99524.69
2022-10-03T18:28:46.634Z,99512.72
2022-10-03T18:31:19.820Z,99505.06
2022-10-03T18:34:04.468Z,99501.50
2022-10-03T18:36:40.261Z,99499.97
2022-10-03T18:39:32.813Z,99492.03
2022-10-03T18:42:03.896Z,99483.88
2022-10-03T18:44:35.238Z,99480.31
2022-10-03T18:47:15.517Z,99468.81
2022-10-03T18:49:54.844Z,99475.91
2022-10-03T18:52:34.522Z,99462.66
2022-10-03T18:55:21.280Z,99455.00
2022-10-03T18:58:11.410Z,99450.66
2022-10-03T19:00:52.398Z,99443.78
2022-10-03T19:03:29.288Z,99441.22
2022-10-03T19:06:07.087Z,99433.84
2022-10-03T19:09:07.645Z,99435.59
2022-10-03T19:11:46.154Z,99436.59
2022-10-03T19:14:46.671Z,99432.00
2022-10-03T19:17:33.664Z,99442.19
2022-10-03T19:20:13.105Z,99444.22
2022-10-03T19:22:45.825Z,99452.84
2022-10-03T19:25:24.703Z,99455.41
2022-10-03T19:28:00.537Z,99457.94
2022-10-03T19:30:32.818Z,99461.25
2022-10-03T19:33:24.138Z,99465.31
2022-10-03T19:35:56.521Z,99467.84
2022-10-03T19:38:33.819Z,99454.84
2022-10-03T19:41:25.532Z,99467.31
2022-10-03T19:43:55.425Z,99473.13
2022-10-03T19:46:49.338Z,99472.34
2022-10-03T19:49:34.371Z,99472.84
2022-10-03T19:52:25.695Z,99471.34
2022-10-03T19:55:14.609Z,99461.91
2022-10-03T19:57:44.839Z,99465.22
2022-10-03T20:00:19.293Z,99466.47
2022-10-03T20:02:56.013Z,99471.31
2022-10-03T20:05:34.319Z,99474.09
2022-10-03T20:08:09.439Z,99475.38
2022-10-03T20:10:56.515Z,99470.53
2022-10-03T20:13:25.020Z,99473.84
2022-10-03T20:15:56.930Z,99469.78
2022-10-03T20:18:32.372Z,99476.63
2022-10-03T20:21:03.796Z,99483.00
2022-10-03T20:23:34.546Z,99483.25
2022-10-03T20:26:05.521Z,99480.47
2022-10-03T20:28:54.963Z,99483.53
2022-10-03T20:31:27.505Z,99477.44
2022-10-03T20:34:00.122Z,99488.13
2022-10-03T20:36:38.292Z,99481.00
2022-10-03T20:39:42.600Z,99481.25
2022-10-03T20:42:27.267Z,99484.06
2022-10-03T20:45:17.848Z,99479.22
2022-10-03T20:47:52.470Z,99478.72
2022-10-03T20:50:30.568Z,99481.50
2022-10-03T20:53:03.390Z,99482.28
2022-10-03T20:55:51.863Z,99484.31
2022-10-03T20:58:31.312Z,99482.28
2022-10-03T21:01:16.745Z,99486.34
2022-10-03T21:04:06.101Z,99485.84
2022-10-03T21:06:49.017Z,99486.63
2022-10-03T21:09:47.608Z,99496.53
2022-10-03T21:12:31.023Z,99495.78
2022-10-03T21:15:12.473Z,99502.13
2022-10-03T21:17:46.242Z,99509.28
2022-10-03T21:20:24.771Z,99510.81
2022-10-03T21:22:56.772Z,99502.94
2022-10-03T21:25:39.609Z,99495.31
2022-10-03T21:28:24.866Z,99493.25
2022-10-03T21:31:09.169Z,99487.66
2022-10-03T21:34:03.929Z,99498.09
2022-10-03T21:37:05.149Z,99485.34
2022-10-03T21:39:57.750Z,99492.97
2022-10-03T21:43:10.561Z,99494.25
2022-10-03T21:45:51.282Z,99501.09
2022-10-03T21:48:43.700Z,99500.06
2022-10-03T21:51:33.293Z,99510.50
2022-10-03T21:54:07.293Z,99505.91
2022-10-03T21:56:50.890Z,99513.53
2022-10-03T21:59:24.951Z,99507.94
2022-10-03T22:02:17.070Z,99511.25
2022-10-03T22:05:11.196Z,99513.78
2022-10-03T22:07:42.117Z,99522.66
2022-10-03T22:10:38.426Z,99519.09
2022-10-03T22:13:09.278Z,99518.84
2022-10-03T22:15:53.336Z,99523.66
2022-10-03T22:18:23.568Z,99531.78
2022-10-03T22:21:16.050Z,99535.09
2022-10-03T22:23:54.330Z,99542.72
2022-10-03T22:26:36.473Z,99553.91
2022-10-03T22:29:22.960Z,99565.59
2022-10-03T22:32:10.086Z,99564.06
2022-10-03T22:34:58.009Z,99562.53
2022-10-03T22:37:27.365Z,99580.84
2022-10-03T22:39:59.536Z,99587.69
2022-10-03T22:42:32.068Z,99597.34
2022-10-03T22:45:00.900Z,99586.16
2022-10-03T22:47:34.333Z,99597.34
2022-10-03T22:50:08.244Z,99604.97
2022-10-03T22:52:41.634Z,99616.34
2022-10-03T22:55:14.426Z,99619.38
2022-10-03T22:57:45.728Z,99620.63
2022-10-03T23:00:18.202Z,99624.91
2022-10-03T23:03:00.396Z,99628.69
2022-10-03T23:05:53.169Z,99633.25
2022-10-03T23:08:34.017Z,99630.41
2022-10-03T23:11:18.257Z,99624.47
2022-10-03T23:13:46.878Z,99609.94
2022-10-03T23:16:34.261Z,99608.41
2022-10-03T23:19:28.284Z,99598.72
2022-10-03T23:22:00.552Z,99607.31
2022-10-03T23:25:07.948Z,99602.72
2022-10-03T23:28:02.015Z,99587.97
2022-10-03T23:30:36.739Z,99583.16
2022-10-03T23:33:05.127Z,99560.25
2022-10-03T23:35:43.697Z,99567.88
2022-10-03T23:38:52.945Z,99567.38
2022-10-03T23:41:52.216Z,99581.63
2022-10-03T23:44:49.533Z,99568.69
2022-10-03T23:47:22.325Z,99575.31
2022-10-03T23:49:52.939Z,99587.53
2022-10-03T23:52:31.316Z,99588.34
2022-10-03T23:55:06.085Z,99573.13
2022-10-03T23:57:43.684Z,99570.59
